createdAt,value
2023-04-30T00:02:41.534Z,11.82
2023-04-30T00:06:06.659Z,11.82
2023-04-30T00:09:31.844Z,11.8
2023-04-30T00:12:57.040Z,11.79
2023-04-30T00:16:22.316Z,11.75
2023-04-30T00:19:47.406Z,11.7
2023-04-30T00:23:12.589Z,11.64
2023-04-30T00:26:37.803Z,11.6
2023-04-30T00:30:03.006Z,11.57
2023-04-30T00:33:28.156Z,11.59
2023-04-30T00:36:53.382Z,11.6
2023-04-30T00:40:18.571Z,11.61
2023-04-30T00:43:43.763Z,11.59
2023-04-30T00:47:09.012Z,11.58
2023-04-30T00:50:34.186Z,11.54
2023-04-30T00:53:59.396Z,11.49
2023-04-30T00:57:24.565Z,11.47
2023-04-30T01:00:49.735Z,11.42
2023-04-30T01:04:15.002Z,11.34
2023-04-30T01:07:40.178Z,11.29
2023-04-30T01:11:05.348Z,11.26
2023-04-30T01:14:30.530Z,11.21
2023-04-30T01:17:55.810Z,11.19
2023-04-30T01:21:20.930Z,11.17
2023-04-30T01:24:46.266Z,11.15
2023-04-30T01:28:11.462Z,11.15
2023-04-30T01:31:36.700Z,11.12
2023-04-30T01:35:03.302Z,11.12
2023-04-30T01:38:27.115Z,11.05
2023-04-30T01:41:52.302Z,10.93
2023-04-30T01:45:17.484Z,10.8
2023-04-30T01:48:42.697Z,10.73
2023-04-30T01:52:07.889Z,10.67
2023-04-30T01:55:33.237Z,10.68
2023-04-30T01:58:58.304Z,10.7
2023-04-30T02:02:23.557Z,10.72
2023-04-30T02:05:48.722Z,10.71
2023-04-30T02:09:13.922Z,10.71
2023-04-30T02:12:39.112Z,10.69
2023-04-30T02:16:04.272Z,10.66
2023-04-30T02:19:29.469Z,10.63
2023-04-30T02:22:54.662Z,10.57
2023-04-30T02:26:20.156Z,10.55
2023-04-30T02:29:45.390Z,10.56
2023-04-30T02:33:10.547Z,10.57
2023-04-30T02:36:35.755Z,10.59
2023-04-30T02:40:00.955Z,10.59
2023-04-30T02:43:26.132Z,10.62
2023-04-30T02:46:51.332Z,10.66
2023-04-30T02:50:16.469Z,10.71
2023-04-30T02:53:41.652Z,10.74
2023-04-30T02:57:06.843Z,10.76
2023-04-30T03:00:32.027Z,10.78
2023-04-30T03:03:57.253Z,10.75
2023-04-30T03:07:22.439Z,10.73
2023-04-30T03:10:47.627Z,10.68
2023-04-30T03:14:12.840Z,10.65
2023-04-30T03:17:38.050Z,10.55
2023-04-30T03:21:03.220Z,10.47
2023-04-30T03:24:28.401Z,10.47
2023-04-30T03:27:53.608Z,10.46
2023-04-30T03:31:18.787Z,10.45
2023-04-30T03:34:43.961Z,10.48
2023-04-30T03:38:09.137Z,10.52
2023-04-30T03:41:34.318Z,10.48
2023-04-30T03:44:59.537Z,10.47
2023-04-30T03:48:24.776Z,10.52
2023-04-30T03:51:49.978Z,10.56
2023-04-30T03:55:15.152Z,10.51
2023-04-30T03:58:40.313Z,10.48
2023-04-30T04:02:05.531Z,10.47
2023-04-30T04:05:30.733Z,10.47
2023-04-30T04:08:55.920Z,10.47
2023-04-30T04:12:21.154Z,10.48
2023-04-30T04:15:46.341Z,10.46
2023-04-30T04:19:11.520Z,10.45
2023-04-30T04:22:36.720Z,10.46
2023-04-30T04:26:01.908Z,10.46
2023-04-30T04:29:27.144Z,10.46
2023-04-30T04:32:52.383Z,10.44
2023-04-30T04:36:17.530Z,10.41
2023-04-30T04:39:42.705Z,10.35
2023-04-30T04:43:07.896Z,10.29
2023-04-30T04:46:33.139Z,10.25
2023-04-30T04:49:58.233Z,10.12
2023-04-30T04:53:23.422Z,9.96
2023-04-30T04:56:48.607Z,9.86
2023-04-30T05:00:13.789Z,9.78
2023-04-30T05:03:39.082Z,9.72
2023-04-30T05:07:04.198Z,9.69
2023-04-30T05:10:29.410Z,9.69
2023-04-30T05:13:54.644Z,9.68
2023-04-30T05:17:19.874Z,9.65
2023-04-30T05:20:45.061Z,9.6
2023-04-30T05:24:10.212Z,9.6
2023-04-30T05:27:35.393Z,9.64
2023-04-30T05:31:00.571Z,9.66
2023-04-30T05:34:25.767Z,9.69
2023-04-30T05:37:50.999Z,9.77
2023-04-30T05:41:16.198Z,9.84
2023-04-30T05:44:41.389Z,9.82
2023-04-30T05:48:06.606Z,9.8
2023-04-30T05:51:31.785Z,9.82
2023-04-30T05:54:57.030Z,9.84
2023-04-30T05:58:22.205Z,9.85
2023-04-30T06:01:47.467Z,9.89
2023-04-30T06:05:14.685Z,9.87
2023-04-30T06:08:37.897Z,9.86
2023-04-30T06:12:03.212Z,9.87
2023-04-30T06:15:28.298Z,9.89
2023-04-30T06:18:53.945Z,9.95
2023-04-30T06:22:18.666Z,10.05
2023-04-30T06:25:43.843Z,10.09
2023-04-30T06:29:09.061Z,10.06
2023-04-30T06:32:34.274Z,10.08
2023-04-30T06:35:59.442Z,10.17
2023-04-30T06:39:24.644Z,10.25
2023-04-30T06:42:49.807Z,10.32
2023-04-30T06:46:15.220Z,10.42
2023-04-30T06:49:40.233Z,10.42
2023-04-30T06:53:05.427Z,10.52
2023-04-30T06:56:30.610Z,10.57
2023-04-30T06:59:56.007Z,10.77
2023-04-30T07:03:21.100Z,11.01
2023-04-30T07:06:46.258Z,11.25
2023-04-30T07:10:11.445Z,11.39
2023-04-30T07:13:36.658Z,11.52
2023-04-30T07:17:01.839Z,11.6
2023-04-30T07:20:27.171Z,11.69
2023-04-30T07:23:52.255Z,11.76
2023-04-30T07:27:17.492Z,11.82
2023-04-30T07:30:42.674Z,11.9
2023-04-30T07:34:07.851Z,12.06
2023-04-30T07:37:35.035Z,12.22
2023-04-30T07:40:58.238Z,12.38
2023-04-30T07:44:23.415Z,12.52
2023-04-30T07:47:48.674Z,12.47
2023-04-30T07:51:13.778Z,12.41
2023-04-30T07:54:38.996Z,12.54
2023-04-30T07:58:04.168Z,12.73
2023-04-30T08:01:29.369Z,12.94
2023-04-30T08:04:56.740Z,13.11
2023-04-30T08:08:24.933Z,13.23
2023-04-30T08:11:50.148Z,13.33
2023-04-30T08:15:15.296Z,13.37
2023-04-30T08:18:40.541Z,13.38
2023-04-30T08:22:05.748Z,13.43
2023-04-30T08:25:30.913Z,13.47
2023-04-30T08:28:56.142Z,13.38
2023-04-30T08:32:21.400Z,13.32
2023-04-30T08:35:46.469Z,13.33
2023-04-30T08:39:11.688Z,13.37
2023-04-30T08:42:36.893Z,13.48
2023-04-30T08:46:02.168Z,13.51
2023-04-30T08:49:27.355Z,13.55
2023-04-30T08:52:52.592Z,13.61
2023-04-30T08:56:17.812Z,13.65
2023-04-30T08:59:43.117Z,13.7
2023-04-30T09:03:08.660Z,13.82
2023-04-30T09:06:33.759Z,13.92
2023-04-30T09:09:59.040Z,14.06
2023-04-30T09:13:24.372Z,14.19
2023-04-30T09:16:49.625Z,14.35
2023-04-30T09:20:14.899Z,14.5
2023-04-30T09:23:40.125Z,14.67
2023-04-30T09:27:05.403Z,14.92
2023-04-30T09:30:30.680Z,15.1
2023-04-30T09:33:56.033Z,15.19
2023-04-30T09:37:21.310Z,15.26
2023-04-30T09:40:46.556Z,15.4
2023-04-30T09:44:11.806Z,15.52
2023-04-30T09:47:37.131Z,15.7
2023-04-30T09:51:02.401Z,15.85
2023-04-30T09:54:27.728Z,15.9
2023-04-30T09:57:52.974Z,16.030001
2023-04-30T10:01:18.389Z,16.139999
2023-04-30T10:04:43.731Z,16.110001
2023-04-30T10:08:08.991Z,16.09
2023-04-30T10:11:34.278Z,16.02
2023-04-30T10:14:59.507Z,15.99
2023-04-30T10:18:24.760Z,16.01
2023-04-30T10:21:50.024Z,15.93
2023-04-30T10:25:15.300Z,15.78
2023-04-30T10:28:40.590Z,15.7
2023-04-30T10:32:05.968Z,15.63
2023-04-30T10:35:31.223Z,15.57
2023-04-30T10:38:56.493Z,15.61
2023-04-30T10:42:21.726Z,15.72
2023-04-30T10:45:47.042Z,15.75
2023-04-30T10:49:12.213Z,15.79
2023-04-30T10:52:37.491Z,15.8
2023-04-30T10:56:02.736Z,15.84
2023-04-30T10:59:28.030Z,15.82
2023-04-30T11:02:53.420Z,15.85
2023-04-30T11:06:18.569Z,15.92
2023-04-30T11:09:43.988Z,16.07
2023-04-30T11:13:09.235Z,16.08
2023-04-30T11:16:34.687Z,16.219999
2023-04-30T11:19:59.734Z,16.32
2023-04-30T11:23:32.117Z,16.5
2023-04-30T11:26:50.235Z,16.629999
2023-04-30T11:30:15.618Z,16.690001
2023-04-30T11:33:40.800Z,16.75
2023-04-30T11:37:06.077Z,16.77
2023-04-30T11:40:31.324Z,16.73
2023-04-30T11:43:56.641Z,16.709999
2023-04-30T11:47:22.062Z,16.67
2023-04-30T11:50:47.302Z,16.700001
2023-04-30T11:54:12.580Z,16.709999
2023-04-30T11:57:37.836Z,16.559999
2023-04-30T12:01:03.088Z,16.530001
2023-04-30T12:04:28.417Z,16.530001
2023-04-30T12:07:53.623Z,16.530001
2023-04-30T12:11:18.934Z,16.610001
2023-04-30T12:14:44.161Z,16.58
2023-04-30T12:18:09.490Z,16.559999
2023-04-30T12:21:34.750Z,16.57
2023-04-30T12:25:00.032Z,16.57
2023-04-30T12:28:25.322Z,16.41
2023-04-30T12:31:50.647Z,16.360001
2023-04-30T12:35:15.934Z,16.32
2023-04-30T12:38:41.196Z,16.26
2023-04-30T12:42:06.481Z,16.27
2023-04-30T12:45:31.811Z,16.309999
2023-04-30T12:48:57.130Z,16.23
2023-04-30T12:52:22.411Z,16.18
2023-04-30T12:55:47.669Z,16.209999
2023-04-30T12:59:12.950Z,16.27
2023-04-30T13:02:38.308Z,16.280001
2023-04-30T13:06:03.507Z,16.27
2023-04-30T13:09:28.732Z,16.219999
2023-04-30T13:12:53.979Z,16.16
2023-04-30T13:16:19.267Z,16.129999
2023-04-30T13:19:44.527Z,16.190001
2023-04-30T13:23:09.754Z,16.27
2023-04-30T13:26:35.033Z,16.33
2023-04-30T13:30:00.322Z,16.309999
2023-04-30T13:33:26.294Z,16.219999
2023-04-30T13:36:51.605Z,16.15
2023-04-30T13:40:16.802Z,16.09
2023-04-30T13:43:42.608Z,16.049999
2023-04-30T13:47:07.340Z,15.99
2023-04-30T13:50:32.552Z,16
2023-04-30T13:53:57.824Z,15.95
2023-04-30T13:57:23.114Z,15.93
2023-04-30T14:00:48.366Z,15.9
2023-04-30T14:04:13.687Z,15.92
2023-04-30T14:07:38.853Z,15.94
2023-04-30T14:11:04.115Z,15.96
2023-04-30T14:14:29.317Z,15.98
2023-04-30T14:17:54.663Z,15.96
2023-04-30T14:21:19.818Z,15.88
2023-04-30T14:24:45.059Z,15.85
2023-04-30T14:28:10.337Z,15.85
2023-04-30T14:31:35.589Z,15.85
2023-04-30T14:35:00.847Z,15.86
2023-04-30T14:38:26.088Z,15.84
2023-04-30T14:41:52.300Z,15.82
2023-04-30T14:45:16.622Z,15.78
2023-04-30T14:48:41.836Z,15.73
2023-04-30T14:52:07.087Z,15.72
2023-04-30T14:55:32.335Z,15.76
2023-04-30T14:58:57.597Z,15.79
2023-04-30T15:02:23.016Z,15.82
2023-04-30T15:05:48.107Z,15.77
2023-04-30T15:39:14.957Z,13.35
2023-04-30T15:42:40.228Z,14.29
2023-04-30T15:46:05.487Z,14.51
2023-04-30T15:49:30.716Z,14.69
2023-04-30T15:52:56.007Z,14.83
2023-04-30T15:56:21.324Z,14.94
2023-04-30T15:59:46.588Z,15.06
2023-04-30T16:03:11.958Z,15.13
2023-04-30T16:06:37.196Z,15.13
2023-04-30T16:10:02.398Z,15.12
2023-04-30T16:13:27.673Z,15.09
2023-04-30T16:16:52.930Z,15.02
2023-04-30T16:20:18.079Z,14.95
2023-04-30T16:23:43.301Z,14.92
2023-04-30T16:27:08.520Z,14.85
2023-04-30T16:30:33.760Z,14.81
2023-04-30T16:33:58.940Z,14.82
2023-04-30T16:37:24.165Z,14.82
2023-04-30T16:40:49.400Z,14.8
2023-04-30T16:44:14.634Z,14.76
2023-04-30T16:47:39.996Z,14.71
2023-04-30T16:51:05.186Z,14.69
2023-04-30T16:54:30.453Z,14.68
2023-04-30T16:57:55.678Z,14.63
2023-04-30T17:01:20.973Z,14.56
2023-04-30T17:04:46.226Z,14.49
2023-04-30T17:08:11.415Z,14.4
2023-04-30T17:11:36.651Z,14.34
2023-04-30T17:15:01.899Z,14.26
2023-04-30T17:18:27.131Z,14.2
2023-04-30T17:21:52.470Z,14.15
2023-04-30T17:25:17.731Z,14.12
2023-04-30T17:28:43.038Z,14.05
2023-04-30T17:32:08.328Z,13.95
2023-04-30T17:35:33.624Z,13.83
2023-04-30T17:38:58.942Z,13.68
2023-04-30T17:42:24.197Z,13.58
2023-04-30T17:45:49.536Z,13.49
2023-04-30T17:49:14.850Z,13.39
2023-04-30T17:52:40.221Z,13.33
2023-04-30T17:56:05.539Z,13.27
2023-04-30T17:59:30.828Z,13.22
2023-04-30T18:02:56.143Z,13.17
2023-04-30T18:06:21.479Z,13.1
2023-04-30T18:09:46.725Z,13.03
2023-04-30T18:13:12.084Z,13.01
2023-04-30T18:16:37.371Z,12.96
2023-04-30T18:20:02.647Z,12.87
2023-04-30T18:23:27.962Z,12.81
2023-04-30T18:26:53.283Z,12.78
2023-04-30T18:30:18.610Z,12.7
2023-04-30T18:33:43.874Z,12.6
2023-04-30T18:37:09.180Z,12.5
2023-04-30T18:40:34.438Z,12.42
2023-04-30T18:43:59.751Z,12.36
2023-04-30T18:47:25.162Z,12.35
2023-04-30T18:50:50.343Z,12.3
2023-04-30T18:54:15.651Z,12.22
2023-04-30T18:57:42.278Z,12.17
2023-04-30T19:01:06.230Z,12.09
2023-04-30T19:04:31.562Z,12
2023-04-30T19:07:56.842Z,11.92
2023-04-30T19:11:22.119Z,11.83
2023-04-30T19:14:47.365Z,11.77
2023-04-30T19:18:12.749Z,11.73
2023-04-30T19:21:37.935Z,11.67
2023-04-30T19:25:03.264Z,11.58
2023-04-30T19:28:28.644Z,11.37
2023-04-30T19:31:53.990Z,11.25
2023-04-30T19:35:19.249Z,11.15
2023-04-30T19:38:44.589Z,11.01
2023-04-30T19:42:09.841Z,10.87
2023-04-30T19:45:35.084Z,10.76
2023-04-30T19:49:00.405Z,10.7
2023-04-30T19:52:25.668Z,10.6
2023-04-30T19:55:51.084Z,10.48
2023-04-30T19:59:16.225Z,10.41
2023-04-30T20:02:41.648Z,10.37
2023-04-30T20:06:06.896Z,10.31
2023-04-30T20:09:32.118Z,10.23
2023-04-30T20:12:57.452Z,10.18
2023-04-30T20:16:22.766Z,10.21
2023-04-30T20:19:47.974Z,10.18
2023-04-30T20:23:13.227Z,10.23
2023-04-30T20:26:38.544Z,10.22
2023-04-30T20:30:03.825Z,10.25
2023-04-30T20:33:29.167Z,10.28
2023-04-30T20:36:54.459Z,10.24
2023-04-30T20:40:19.709Z,10.17
2023-04-30T20:43:44.998Z,10.12
2023-04-30T20:47:10.350Z,10.04
2023-04-30T20:50:35.573Z,9.98
2023-04-30T20:54:01.332Z,9.95
2023-04-30T20:57:26.462Z,9.9
2023-04-30T21:00:51.769Z,9.88
2023-04-30T21:04:17.052Z,9.85
2023-04-30T21:07:42.369Z,9.77
2023-04-30T21:11:07.679Z,9.69
2023-04-30T21:14:32.998Z,9.7
2023-04-30T21:17:58.320Z,9.69
2023-04-30T21:21:23.559Z,9.68
2023-04-30T21:24:48.786Z,9.7
2023-04-30T21:28:14.080Z,9.65
2023-04-30T21:31:39.348Z,9.66
2023-04-30T21:35:04.623Z,9.66
2023-04-30T21:38:30.418Z,9.64
2023-04-30T21:41:55.657Z,9.62
2023-04-30T21:45:20.928Z,9.61
2023-04-30T21:48:46.167Z,9.59
2023-04-30T21:52:11.447Z,9.56
2023-04-30T21:55:36.722Z,9.51
2023-04-30T21:59:01.974Z,9.49
2023-04-30T22:02:27.446Z,9.45
2023-04-30T22:05:52.459Z,9.44
2023-04-30T22:09:17.753Z,9.44
2023-04-30T22:12:45.533Z,9.44
2023-04-30T22:16:08.420Z,9.44
2023-04-30T22:19:33.537Z,9.46
2023-04-30T22:22:58.812Z,9.44
2023-04-30T22:26:25.406Z,9.41
2023-04-30T22:29:49.420Z,9.37
2023-04-30T22:33:14.707Z,9.35
2023-04-30T22:36:39.947Z,9.29
2023-04-30T22:40:05.261Z,9.23
2023-04-30T22:43:30.514Z,9.23
2023-04-30T22:46:55.818Z,9.21
2023-04-30T22:50:21.051Z,9.19
2023-04-30T22:53:46.318Z,9.19
2023-04-30T22:57:11.590Z,9.14
2023-04-30T23:00:36.925Z,9.1
2023-04-30T23:04:02.229Z,9.03
2023-04-30T23:07:27.428Z,8.92
2023-04-30T23:10:52.693Z,8.86
2023-04-30T23:14:17.949Z,8.88
2023-04-30T23:17:43.286Z,8.84
2023-04-30T23:21:08.496Z,8.87
2023-04-30T23:24:33.760Z,8.9
2023-04-30T23:27:59.037Z,8.87
2023-04-30T23:31:24.338Z,8.8
2023-04-30T23:34:49.568Z,8.69
2023-04-30T23:38:14.850Z,8.66
2023-04-30T23:41:40.087Z,8.62
2023-04-30T23:45:05.332Z,8.58
2023-04-30T23:48:30.625Z,8.58
2023-04-30T23:51:55.838Z,8.62
2023-04-30T23:55:21.100Z,8.64
2023-04-30T23:58:46.334Z,8.66
